Bro Anna — 9V3609 — position and weather

sailwx.info

Track history (hours):
 
Tides and Currents Weather Stations Pressure Air Temp Water Temp Dewpoint Dewpoint Depression Visibility Wind Speed Wind Dir Waves Ship Positions

Bro Anna

Last reported at 2018-Jun-22 23:58 UTC. Time now 2018-Jun-23 17:36 UTC.
Position N 45°14' W 074°11'.

Length 144 m; draft 7.2 m.

Type: Tanker. MMSI: 564066000.

Date/timePositionNaut miles runAvg speedWind from/ knotsBaromVisibWave heightAir tempDewpointWater temp
2018-Jun-22 23:58N 45°14' W 074°11'6 9.4
2018-Jun-22 23:20N 45°13' W 074°02'4 9.8
2018-Jun-22 22:58N 45°15' W 073°58'3 7.3
2018-Jun-22 22:30N 45°18' W 073°56'1 1.1
2018-Jun-22 22:00N 45°19' W 073°55'0 0.9
2018-Jun-22 21:30N 45°19' W 073°55'1 2.2
2018-Jun-22 21:00N 45°20' W 073°54'2 5.0
2018-Jun-22 20:30N 45°21' W 073°51'4 8.4
2018-Jun-22 19:59N 45°24' W 073°46'4 7.8
2018-Jun-22 19:30N 45°25' W 073°41'3 6.0
2018-Jun-22 19:00N 45°24' W 073°37'2 4.6
2018-Jun-22 18:30N 45°24' W 073°34'1 1.0
2018-Jun-22 18:00N 45°24' W 073°33'3 5.5
2018-Jun-22 17:31N 45°26' W 073°30'3 6.9
2018-Jun-22 17:00N 45°30' W 073°31'0 0.3
2018-Jun-22 16:29N 45°30' W 073°31'1 1.6
2018-Jun-22 15:57N 45°31' W 073°31'7 4.5
2018-Jun-22 14:20N 45°38' W 073°29'4 9.1
2018-Jun-22 13:56N 45°41' W 073°27'410.0
2018-Jun-22 13:30N 45°45' W 073°24'510.2
2018-Jun-22 13:01N 45°48' W 073°19'510.2
2018-Jun-22 12:30N 45°53' W 073°15'5 9.6
2018-Jun-22 12:00N 45°57' W 073°13'5 9.6
2018-Jun-22 11:31N 46°01' W 073°10'4 8.7
2018-Jun-22 11:00N 46°04' W 073°05'90 9.2
2018-Jun-22 01:11N 46°49' W 071°12'1 6.1
2018-Jun-22 00:59N 46°50' W 071°11'  
2018-Jun-14 14:29N 46°50' W 071°09'2 2.6
2018-Jun-14 13:51N 46°50' W 071°11'8711.7
2018-Jun-14 06:27N 46°06' W 072°60'613.6
2018-Jun-14 06:00N 46°03' W 073°08'612.3
2018-Jun-14 05:30N 45°58' W 073°12'713.7
2018-Jun-14 05:00N 45°52' W 073°16'714.2
2018-Jun-14 04:30N 45°46' W 073°22'714.2
2018-Jun-14 04:00N 45°40' W 073°28'  
Track history (hours):
 
Tides and Currents Weather Stations Pressure Air Temp Water Temp Dewpoint Dewpoint Depression Visibility Wind Speed Wind Dir Waves Ship Positions

Bro Anna

Last reported at 2018-Jun-22 23:58 UTC. Time now 2018-Jun-23 17:36 UTC.
Position N 45°14' W 074°11'.

Length 144 m; draft 7.2 m.

Type: Tanker. MMSI: 564066000.

Date/timePositionNaut miles runAvg speedWind from/ knotsBaromVisibWave heightAir tempDewpointWater temp
2018-Jun-22 23:58N 45°14' W 074°11'6 9.4
2018-Jun-22 23:20N 45°13' W 074°02'4 9.8
2018-Jun-22 22:58N 45°15' W 073°58'3 7.3
2018-Jun-22 22:30N 45°18' W 073°56'1 1.1
2018-Jun-22 22:00N 45°19' W 073°55'0 0.9
2018-Jun-22 21:30N 45°19' W 073°55'1 2.2
2018-Jun-22 21:00N 45°20' W 073°54'2 5.0
2018-Jun-22 20:30N 45°21' W 073°51'4 8.4
2018-Jun-22 19:59N 45°24' W 073°46'4 7.8
2018-Jun-22 19:30N 45°25' W 073°41'3 6.0
2018-Jun-22 19:00N 45°24' W 073°37'2 4.6
2018-Jun-22 18:30N 45°24' W 073°34'1 1.0
2018-Jun-22 18:00N 45°24' W 073°33'3 5.5
2018-Jun-22 17:31N 45°26' W 073°30'3 6.9
2018-Jun-22 17:00N 45°30' W 073°31'0 0.3
2018-Jun-22 16:29N 45°30' W 073°31'1 1.6
2018-Jun-22 15:57N 45°31' W 073°31'7 4.5
2018-Jun-22 14:20N 45°38' W 073°29'4 9.1
2018-Jun-22 13:56N 45°41' W 073°27'410.0
2018-Jun-22 13:30N 45°45' W 073°24'510.2
2018-Jun-22 13:01N 45°48' W 073°19'510.2
2018-Jun-22 12:30N 45°53' W 073°15'5 9.6
2018-Jun-22 12:00N 45°57' W 073°13'5 9.6
2018-Jun-22 11:31N 46°01' W 073°10'4 8.7
2018-Jun-22 11:00N 46°04' W 073°05'90 9.2
2018-Jun-22 01:11N 46°49' W 071°12'1 6.1
2018-Jun-22 00:59N 46°50' W 071°11'  
2018-Jun-14 14:29N 46°50' W 071°09'2 2.6
2018-Jun-14 13:51N 46°50' W 071°11'8711.7
2018-Jun-14 06:27N 46°06' W 072°60'613.6
2018-Jun-14 06:00N 46°03' W 073°08'612.3
2018-Jun-14 05:30N 45°58' W 073°12'713.7
2018-Jun-14 05:00N 45°52' W 073°16'714.2
2018-Jun-14 04:30N 45°46' W 073°22'714.2
2018-Jun-14 04:00N 45°40' W 073°28'  

Dump ship's entire track history